Time;durP1;ratioP1;P1;durP2;ratioP2;P2;SDS_P1;SDS_P2;PMS_P1;PMS_P2;Temp;Humidity;BMP_temperature;BMP_pressure;BME280_temperature;BME280_humidity;BME280_pressure;Samples;Min_cycle;Max_cycle;Signal;HPM_P1;HPM_P2
2022/06/24 00:00:11;;;;;;;5.10;2.58;;;21.00;87.30;;;;;;5012323;28;20202;-93
2022/06/24 00:02:41;;;;;;;6.93;3.05;;;21.00;87.10;;;;;;5012042;28;20175;-93
2022/06/24 00:05:13;;;;;;;4.90;2.40;;;21.00;87.50;;;;;;5012127;28;20207;-92
2022/06/24 00:07:50;;;;;;;2.58;2.38;;;20.90;88.20;;;;;;5012513;28;20167;-92
2022/06/24 00:10:21;;;;;;;4.38;2.67;;;20.90;87.50;;;;;;5011951;28;20572;-91
2022/06/24 00:12:49;;;;;;;3.33;2.47;;;20.90;88.10;;;;;;5012405;28;20199;-92
2022/06/24 00:15:22;;;;;;;3.80;2.45;;;20.80;87.60;;;;;;5015760;28;20282;-92
2022/06/24 00:17:48;;;;;;;3.17;2.13;;;20.80;87.40;;;;;;5015914;28;20178;-93
2022/06/24 00:20:19;;;;;;;3.72;2.30;;;20.80;88.00;;;;;;5015868;28;20167;-92
2022/06/24 00:22:49;;;;;;;5.68;2.70;;;20.80;87.80;;;;;;5016150;28;20178;-92
2022/06/24 00:25:21;;;;;;;4.15;2.60;;;20.80;87.80;;;;;;5015486;28;20214;-92
2022/06/24 00:28:07;;;;;;;2.53;2.33;;;20.80;87.70;;;;;;5015828;28;20202;-92
2022/06/24 00:30:44;;;;;;;2.60;2.17;;;20.80;88.00;;;;;;5015791;28;20647;-92
2022/06/24 00:33:13;;;;;;;4.22;2.40;;;20.70;87.90;;;;;;5016089;28;20182;-93
2022/06/24 00:35:41;;;;;;;6.15;3.05;;;20.70;88.00;;;;;;5015652;28;20697;-92
2022/06/24 00:38:40;;;;;;;3.42;2.80;;;20.70;87.80;;;;;;5015729;28;20175;-92
2022/06/24 00:41:11;;;;;;;2.58;2.30;;;20.60;87.20;;;;;;4983251;28;20187;-92
2022/06/24 00:43:40;;;;;;;3.38;2.65;;;20.60;87.50;;;;;;5015504;28;20225;-92
2022/06/24 00:46:12;;;;;;;2.60;2.40;;;20.60;87.80;;;;;;5015556;28;20297;-92
2022/06/24 00:48:41;;;;;;;2.67;2.40;;;20.60;87.30;;;;;;5015548;28;20781;-93
2022/06/24 00:51:09;;;;;;;5.55;2.65;;;20.70;87.20;;;;;;5015420;28;20186;-92
2022/06/24 00:53:49;;;;;;;3.67;2.72;;;20.60;87.10;;;;;;5015515;28;20533;-93
2022/06/24 00:56:18;;;;;;;4.05;2.55;;;20.60;87.60;;;;;;5297745;22;20279;-85
2022/06/24 00:58:54;;;;;;;2.70;2.50;;;20.50;87.70;;;;;;4996204;28;20179;-84
2022/06/24 01:01:31;;;;;;;3.75;2.60;;;20.50;88.20;;;;;;4997899;28;20172;-85
2022/06/24 01:03:58;;;;;;;2.72;2.50;;;20.50;88.20;;;;;;4994263;28;20187;-84
2022/06/24 01:06:25;;;;;;;5.53;2.75;;;20.50;88.90;;;;;;4995780;28;20216;-85
2022/06/24 01:08:50;;;;;;;4.35;2.20;;;20.40;88.50;;;;;;4997008;28;20254;-84
2022/06/24 01:11:27;;;;;;;3.50;2.80;;;20.40;88.50;;;;;;4996275;28;20718;-86
2022/06/24 01:13:53;;;;;;;4.20;2.55;;;20.40;88.30;;;;;;4995929;28;20175;-84
2022/06/24 01:16:23;;;;;;;6.85;2.58;;;20.40;88.00;;;;;;4995778;28;20660;-87
2022/06/24 01:19:00;;;;;;;3.25;2.38;;;20.40;88.40;;;;;;4995612;28;20176;-85
2022/06/24 01:21:55;;;;;;;6.38;2.92;;;20.40;88.30;;;;;;4997062;28;20214;-85
2022/06/24 01:24:23;;;;;;;4.78;2.45;;;20.40;88.70;;;;;;4975081;28;20191;-85
2022/06/24 01:26:54;;;;;;;3.15;2.65;;;20.40;88.50;;;;;;4996599;28;20616;-87
2022/06/24 01:29:21;;;;;;;4.15;2.63;;;20.40;88.80;;;;;;4997048;28;20160;-85
2022/06/24 01:31:48;;;;;;;3.35;2.38;;;20.40;88.70;;;;;;4997448;28;20216;-87
2022/06/24 01:34:18;;;;;;;3.10;2.40;;;20.40;88.40;;;;;;4995805;28;20179;-85
2022/06/24 01:36:45;;;;;;;3.83;2.40;;;20.30;88.60;;;;;;4995758;28;20184;-87
2022/06/24 01:39:11;;;;;;;4.63;2.25;;;20.30;88.70;;;;;;4995842;28;20176;-85
2022/06/24 01:41:37;;;;;;;2.95;2.30;;;20.30;89.00;;;;;;4995878;28;20180;-87
2022/06/24 01:44:03;;;;;;;6.55;2.58;;;20.20;89.10;;;;;;4995908;28;20183;-88
2022/06/24 01:46:29;;;;;;;2.80;2.60;;;20.20;89.20;;;;;;4995698;28;20701;-85
2022/06/24 01:48:55;;;;;;;2.95;2.33;;;20.10;89.70;;;;;;4996038;28;20206;-87
2022/06/24 01:51:23;;;;;;;3.05;2.33;;;20.10;90.00;;;;;;4997228;28;20599;-86
2022/06/24 01:53:49;;;;;;;4.22;2.53;;;20.00;89.80;;;;;;4996718;28;20551;-85
2022/06/24 01:56:15;;;;;;;6.13;2.70;;;20.10;90.00;;;;;;4995924;28;20231;-85
2022/06/24 01:58:41;;;;;;;3.08;2.58;;;20.00;90.00;;;;;;4995024;28;20176;-86
2022/06/24 02:01:07;;;;;;;4.35;3.00;;;20.00;89.90;;;;;;4995126;28;20176;-86
2022/06/24 02:03:38;;;;;;;4.40;2.60;;;20.00;90.00;;;;;;4996312;28;20179;-84
2022/06/24 02:06:06;;;;;;;2.50;2.30;;;20.00;90.00;;;;;;4996214;28;20200;-84
2022/06/24 02:08:32;;;;;;;4.53;2.40;;;20.00;90.10;;;;;;4995746;28;20175;-85
2022/06/24 02:13:44;;;;;;;4.07;2.60;;;19.90;90.20;;;;;;4996476;28;20645;-83
2022/06/24 02:16:11;;;;;;;5.90;2.70;;;19.90;90.10;;;;;;4994897;28;20188;-84
2022/06/24 02:18:37;;;;;;;5.07;2.67;;;19.90;90.20;;;;;;4996077;28;20298;-83
2022/06/24 02:21:03;;;;;;;4.75;2.58;;;19.90;90.40;;;;;;4994772;28;20632;-83
2022/06/24 02:23:29;;;;;;;3.75;2.60;;;19.80;90.30;;;;;;4995673;28;20250;-83
2022/06/24 02:25:55;;;;;;;4.57;2.35;;;19.80;90.30;;;;;;4995810;28;20235;-83
2022/06/24 02:28:21;;;;;;;4.82;2.45;;;19.80;90.40;;;;;;4994509;28;20202;-83
2022/06/24 02:30:48;;;;;;;4.65;2.97;;;19.70;90.60;;;;;;4994471;28;20180;-84
2022/06/24 02:33:14;;;;;;;6.63;2.90;;;19.70;90.60;;;;;;5007619;28;20171;-84
2022/06/24 02:35:41;;;;;;;6.07;2.70;;;19.70;90.60;;;;;;4990023;28;20184;-83
2022/06/24 02:38:07;;;;;;;3.00;2.70;;;19.70;90.70;;;;;;4995227;28;20172;-84
2022/06/24 02:40:45;;;;;;;4.13;2.47;;;19.70;90.80;;;;;;4994155;28;20271;-85
2022/06/24 02:43:32;;;;;;;4.00;2.80;;;19.60;90.90;;;;;;4994115;28;20172;-84
2022/06/24 02:46:03;;;;;;;5.25;2.90;;;19.60;91.00;;;;;;4993924;28;20215;-84
2022/06/24 02:48:31;;;;;;;5.07;2.50;;;19.50;91.10;;;;;;5010785;28;20191;-84
2022/06/24 02:51:00;;;;;;;4.03;2.50;;;19.50;91.20;;;;;;4993965;28;20210;-85
2022/06/24 02:53:27;;;;;;;3.35;2.50;;;19.50;91.50;;;;;;4993884;28;20188;-85
2022/06/24 02:55:58;;;;;;;3.17;2.50;;;19.40;91.50;;;;;;4993672;28;20226;-86
2022/06/24 02:58:24;;;;;;;3.15;2.33;;;19.50;91.60;;;;;;4994933;28;20203;-85
2022/06/24 03:00:51;;;;;;;7.07;2.55;;;19.40;91.60;;;;;;4993753;28;20203;-83
2022/06/24 03:03:18;;;;;;;4.22;2.78;;;19.40;91.80;;;;;;4991975;28;20184;-83
2022/06/24 03:05:44;;;;;;;8.95;2.80;;;19.40;91.90;;;;;;4992852;28;20262;-83
2022/06/24 03:08:12;;;;;;;2.88;2.45;;;19.30;92.00;;;;;;4993866;28;20179;-84
2022/06/24 03:10:38;;;;;;;6.40;2.63;;;19.30;91.90;;;;;;4993592;28;20168;-83
2022/06/24 03:13:04;;;;;;;2.83;2.50;;;19.30;92.10;;;;;;4993487;28;20575;-82
2022/06/24 03:15:31;;;;;;;8.52;2.50;;;19.30;92.10;;;;;;4993582;28;20188;-83
2022/06/24 03:17:57;;;;;;;3.63;2.38;;;19.30;92.20;;;;;;4994788;28;20180;-83
2022/06/24 03:20:23;;;;;;;3.03;2.70;;;19.30;92.40;;;;;;4993933;28;20641;-84
2022/06/24 03:22:50;;;;;;;4.05;2.85;;;19.30;92.30;;;;;;4993726;28;20211;-84
2022/06/24 03:25:15;;;;;;;3.63;2.33;;;19.30;92.60;;;;;;4994153;28;20646;-84
2022/06/24 03:27:41;;;;;;;4.20;2.65;;;19.30;92.50;;;;;;4993297;28;20187;-83
2022/06/24 03:30:09;;;;;;;5.97;2.60;;;19.30;92.70;;;;;;4993626;28;20187;-84
2022/06/24 03:32:36;;;;;;;2.47;2.28;;;19.30;92.80;;;;;;4993657;28;20199;-84
2022/06/24 03:35:02;;;;;;;3.25;2.35;;;19.20;93.40;;;;;;4993571;28;20180;-84
2022/06/24 03:37:29;;;;;;;6.30;2.80;;;19.20;93.90;;;;;;4994875;28;20254;-84
2022/06/24 03:39:55;;;;;;;5.40;2.58;;;19.20;93.60;;;;;;4993174;28;20179;-83
2022/06/24 03:42:21;;;;;;;3.30;2.65;;;19.10;93.20;;;;;;4994653;28;20172;-84
2022/06/24 03:44:46;;;;;;;2.85;2.65;;;19.10;93.20;;;;;;4994232;28;20179;-84
2022/06/24 03:47:13;;;;;;;6.55;2.60;;;19.20;93.20;;;;;;4994896;28;20618;-85
2022/06/24 03:49:39;;;;;;;3.90;2.50;;;19.10;93.10;;;;;;4997697;28;20263;-85
2022/06/24 03:52:05;;;;;;;3.35;2.53;;;19.10;93.40;;;;;;4998938;28;20171;-85
2022/06/24 03:54:31;;;;;;;5.00;2.53;;;19.10;93.40;;;;;;4998498;28;20164;-86
2022/06/24 03:56:57;;;;;;;4.68;2.63;;;19.10;93.60;;;;;;4997325;28;20228;-84
2022/06/24 03:59:22;;;;;;;4.78;2.95;;;19.10;93.70;;;;;;4997657;28;20597;-84
2022/06/24 04:01:48;;;;;;;5.28;2.72;;;19.00;93.60;;;;;;4998757;28;20175;-84
2022/06/24 04:04:14;;;;;;;5.05;2.30;;;19.00;93.70;;;;;;4998655;28;20172;-85
2022/06/24 04:06:40;;;;;;;4.32;2.60;;;19.00;93.50;;;;;;4997357;28;20219;-86
2022/06/24 04:09:06;;;;;;;3.70;2.67;;;19.00;93.70;;;;;;4996062;28;20176;-84
2022/06/24 04:11:33;;;;;;;4.50;2.75;;;19.10;93.60;;;;;;4977973;28;20678;-85
2022/06/24 04:14:02;;;;;;;3.50;2.70;;;19.10;93.60;;;;;;4981628;28;20265;-84
2022/06/24 04:16:28;;;;;;;2.80;2.47;;;19.10;94.00;;;;;;4997293;28;20179;-85
2022/06/24 04:18:55;;;;;;;4.65;2.58;;;19.10;93.90;;;;;;4998757;28;20195;-86
2022/06/24 04:21:21;;;;;;;2.60;2.40;;;19.20;93.90;;;;;;4998641;28;20176;-86
2022/06/24 04:23:51;;;;;;;3.80;2.70;;;19.20;93.90;;;;;;4996947;28;20180;-85
2022/06/24 04:26:20;;;;;;;3.55;2.30;;;19.20;93.70;;;;;;4997430;28;20219;-86
2022/06/24 04:28:49;;;;;;;3.88;2.72;;;19.30;93.90;;;;;;4991898;28;20486;-86
2022/06/24 04:31:15;;;;;;;4.43;2.85;;;19.20;93.50;;;;;;4994505;28;20180;-86
2022/06/24 04:33:40;;;;;;;3.53;2.80;;;19.30;93.70;;;;;;4980346;28;20566;-86
2022/06/24 04:36:11;;;;;;;4.15;2.60;;;19.30;93.80;;;;;;4993755;28;20184;-84
2022/06/24 04:38:36;;;;;;;3.15;2.85;;;19.30;93.90;;;;;;4996365;28;20180;-83
2022/06/24 04:41:10;;;;;;;2.90;2.55;;;19.30;94.00;;;;;;4996448;28;20270;-84
2022/06/24 04:43:35;;;;;;;3.08;2.63;;;19.30;94.10;;;;;;4996680;28;20195;-84
2022/06/24 04:46:01;;;;;;;3.35;2.47;;;19.30;94.20;;;;;;4994826;28;20208;-87
2022/06/24 04:48:30;;;;;;;3.13;2.60;;;19.40;94.40;;;;;;4997289;28;20646;-87
2022/06/24 04:50:56;;;;;;;5.72;2.40;;;19.40;94.60;;;;;;4996995;28;20172;-88
2022/06/24 04:53:22;;;;;;;2.90;2.70;;;19.40;94.40;;;;;;4996529;28;20190;-83
2022/06/24 04:55:48;;;;;;;3.15;2.55;;;19.50;94.40;;;;;;4995625;28;20184;-83
2022/06/24 04:58:14;;;;;;;3.63;2.63;;;19.60;94.30;;;;;;4997456;28;20175;-84
2022/06/24 05:00:41;;;;;;;3.25;2.75;;;19.60;94.20;;;;;;4995410;28;20190;-83
2022/06/24 05:03:06;;;;;;;3.20;2.80;;;19.70;94.40;;;;;;4997282;28;20218;-84
2022/06/24 05:05:32;;;;;;;2.58;2.28;;;19.80;94.30;;;;;;4995685;28;20219;-84
2022/06/24 05:07:58;;;;;;;3.22;2.60;;;20.00;93.90;;;;;;4996157;28;20558;-84
2022/06/24 05:10:24;;;;;;;2.50;2.30;;;20.10;93.30;;;;;;4995554;28;20266;-84
2022/06/24 05:12:49;;;;;;;3.35;2.25;;;20.20;92.80;;;;;;4997298;28;20169;-86
2022/06/24 05:15:15;;;;;;;3.40;2.35;;;20.30;93.00;;;;;;4995830;28;20180;-86
2022/06/24 05:17:41;;;;;;;3.67;2.53;;;20.40;92.60;;;;;;4996039;28;20191;-86
2022/06/24 05:20:08;;;;;;;5.13;2.42;;;20.50;92.60;;;;;;4995945;28;20172;-86
2022/06/24 05:22:34;;;;;;;3.80;2.70;;;20.70;92.10;;;;;;4995920;28;20179;-87
2022/06/24 05:25:01;;;;;;;4.53;2.30;;;20.80;91.90;;;;;;4995634;28;20208;-86
2022/06/24 05:27:27;;;;;;;4.40;2.55;;;20.90;92.10;;;;;;4982391;28;20181;-87
2022/06/24 05:29:52;;;;;;;5.05;2.35;;;21.10;91.90;;;;;;4977659;28;20183;-87
2022/06/24 05:32:18;;;;;;;2.60;2.30;;;21.20;91.80;;;;;;4989008;28;20180;-85
2022/06/24 05:34:44;;;;;;;3.47;2.70;;;21.30;91.10;;;;;;4981450;28;20179;-83
2022/06/24 05:37:09;;;;;;;3.53;2.42;;;21.40;90.50;;;;;;4997064;28;20184;-84
2022/06/24 05:39:35;;;;;;;3.75;2.03;;;21.60;90.10;;;;;;4995580;28;20559;-82
2022/06/24 05:42:01;;;;;;;3.25;2.60;;;21.70;90.80;;;;;;4993534;28;20165;-82
2022/06/24 05:44:26;;;;;;;3.28;2.00;;;21.80;90.80;;;;;;4992598;28;20210;-83
2022/06/24 05:46:54;;;;;;;2.70;1.95;;;21.90;90.30;;;;;;4995671;28;20538;-84
2022/06/24 05:49:21;;;;;;;2.95;2.10;;;22.00;90.40;;;;;;4991046;28;20220;-89
2022/06/24 05:51:47;;;;;;;3.35;2.10;;;22.10;90.10;;;;;;4993370;28;20274;-87
2022/06/24 05:56:57;;;;;;;6.63;2.42;;;22.30;89.40;;;;;;5008625;28;20302;-87
2022/06/24 05:59:23;;;;;;;2.80;2.00;;;22.30;88.50;;;;;;5015383;28;20207;-86
2022/06/24 06:01:49;;;;;;;3.25;2.63;;;22.30;88.30;;;;;;5015846;28;20171;-87
2022/06/24 06:04:15;;;;;;;2.25;1.92;;;22.30;88.80;;;;;;5015082;28;20985;-86
2022/06/24 06:06:41;;;;;;;3.70;2.28;;;22.20;88.80;;;;;;5014855;28;20296;-87
2022/06/24 06:09:10;;;;;;;8.00;2.53;;;22.20;89.00;;;;;;4993856;28;20214;-86
2022/06/24 06:11:36;;;;;;;4.88;2.47;;;22.10;89.20;;;;;;4995568;28;20203;-87
2022/06/24 06:14:02;;;;;;;4.35;2.47;;;22.20;90.00;;;;;;4995909;28;20207;-87
2022/06/24 06:16:27;;;;;;;6.07;2.20;;;22.20;89.60;;;;;;4994609;28;20215;-85
2022/06/24 06:18:54;;;;;;;3.85;2.65;;;22.30;90.00;;;;;;4994965;28;20223;-86
2022/06/24 06:21:20;;;;;;;2.92;2.05;;;22.40;89.90;;;;;;4995167;28;20214;-87
2022/06/24 06:23:46;;;;;;;3.17;2.17;;;22.50;89.70;;;;;;4996121;28;20549;-87
2022/06/24 06:26:14;;;;;;;4.65;2.00;;;22.60;89.30;;;;;;4994399;28;20218;-88
2022/06/24 06:28:41;;;;;;;4.15;2.50;;;22.70;89.30;;;;;;4994657;28;20218;-86
2022/06/24 06:31:08;;;;;;;3.30;2.00;;;22.80;88.40;;;;;;4996074;28;20179;-83
2022/06/24 06:33:34;;;;;;;3.38;2.30;;;22.90;89.40;;;;;;4980320;28;20403;-87
2022/06/24 06:36:08;;;;;;;2.80;2.20;;;23.00;88.40;;;;;;4989778;28;20270;-85
2022/06/24 06:38:34;;;;;;;3.63;2.13;;;23.20;88.90;;;;;;4995120;28;20632;-89
2022/06/24 06:41:00;;;;;;;3.60;2.42;;;23.20;88.30;;;;;;4994115;28;20188;-86
2022/06/24 06:43:26;;;;;;;5.72;2.00;;;23.30;88.80;;;;;;4995924;28;20179;-87
2022/06/24 06:45:52;;;;;;;3.75;2.40;;;23.40;88.70;;;;;;4994432;28;20227;-85
2022/06/24 06:48:19;;;;;;;3.65;2.17;;;23.60;86.90;;;;;;4994729;28;20172;-88
2022/06/24 06:50:46;;;;;;;3.45;2.28;;;23.70;87.10;;;;;;4995419;28;20710;-86
2022/06/24 06:53:11;;;;;;;5.18;2.47;;;23.90;87.40;;;;;;4976589;28;20180;-89
2022/06/24 06:55:37;;;;;;;6.20;2.42;;;24.00;86.50;;;;;;4973884;28;20231;-86
2022/06/24 06:58:03;;;;;;;4.68;2.22;;;24.20;86.20;;;;;;4991307;28;20196;-85
2022/06/24 07:00:29;;;;;;;4.07;2.35;;;24.30;85.90;;;;;;4993985;28;20182;-86
2022/06/24 07:02:55;;;;;;;3.03;2.20;;;24.50;86.90;;;;;;4995277;28;20169;-83
2022/06/24 07:05:21;;;;;;;3.05;2.30;;;24.60;85.60;;;;;;4994840;28;20883;-86
2022/06/24 07:07:47;;;;;;;4.10;2.20;;;24.80;86.20;;;;;;4994037;28;20184;-86
2022/06/24 07:10:16;;;;;;;6.00;2.55;;;24.90;86.30;;;;;;4994844;28;20559;-86
2022/06/24 07:12:42;;;;;;;4.68;2.28;;;25.10;85.40;;;;;;4994977;28;20195;-87
2022/06/24 07:15:08;;;;;;;3.92;2.20;;;25.20;85.80;;;;;;4993380;28;20218;-85
2022/06/24 07:17:35;;;;;;;5.65;2.58;;;25.40;84.80;;;;;;4976913;28;20584;-86
2022/06/24 07:20:01;;;;;;;6.18;2.13;;;25.50;84.00;;;;;;4994172;28;20187;-87
2022/06/24 07:22:26;;;;;;;5.85;2.70;;;25.70;84.40;;;;;;4994447;28;20172;-88
2022/06/24 07:24:52;;;;;;;4.43;2.35;;;25.80;84.10;;;;;;4993414;28;20192;-88
2022/06/24 07:27:17;;;;;;;5.82;2.70;;;25.90;83.70;;;;;;4994270;28;20191;-90
2022/06/24 07:29:45;;;;;;;2.60;2.38;;;26.10;85.30;;;;;;4994089;28;20179;-88
2022/06/24 07:32:13;;;;;;;2.65;2.40;;;26.20;83.90;;;;;;4995390;28;20290;-86
2022/06/24 07:34:39;;;;;;;3.42;2.55;;;26.30;85.60;;;;;;4993333;28;20180;-88
2022/06/24 07:37:04;;;;;;;4.63;2.53;;;26.40;82.90;;;;;;4995133;28;20627;-88
2022/06/24 07:39:30;;;;;;;2.80;2.30;;;26.60;84.10;;;;;;4993640;28;20203;-85
2022/06/24 07:41:56;;;;;;;3.60;2.80;;;26.70;83.20;;;;;;4993799;28;20168;-85
2022/06/24 07:44:23;;;;;;;3.63;2.40;;;26.90;82.80;;;;;;4986134;28;20269;-87
2022/06/24 07:46:49;;;;;;;4.20;2.33;;;27.00;84.30;;;;;;4990056;28;20643;-88
2022/06/24 07:49:17;;;;;;;3.40;2.67;;;27.10;82.70;;;;;;4985240;28;20646;-86
2022/06/24 07:51:44;;;;;;;5.10;2.50;;;27.30;81.40;;;;;;4984619;28;20228;-85
2022/06/24 07:54:10;;;;;;;6.82;2.50;;;27.30;82.00;;;;;;4991813;28;20214;-88
2022/06/24 07:59:37;;;;;;;8.75;2.40;;;27.50;82.10;;;;;;4952767;28;20203;-87
2022/06/24 08:02:05;;;;;;;3.28;2.70;;;27.70;80.70;;;;;;4974033;28;20188;-87
2022/06/24 08:04:31;;;;;;;2.88;2.20;;;27.70;80.90;;;;;;4992350;28;20212;-87
2022/06/24 08:06:58;;;;;;;3.15;2.78;;;27.80;81.30;;;;;;4994360;28;20204;-86
2022/06/24 08:09:30;;;;;;;4.20;2.85;;;27.90;82.40;;;;;;4994295;28;20172;-87
2022/06/24 08:11:56;;;;;;;4.10;2.88;;;28.00;81.30;;;;;;4992818;28;20192;-85
2022/06/24 08:14:21;;;;;;;5.47;2.85;;;28.10;80.10;;;;;;4993208;28;20184;-87
2022/06/24 08:16:47;;;;;;;3.95;2.67;;;28.20;81.10;;;;;;4994727;28;20266;-87
2022/06/24 08:19:14;;;;;;;3.13;2.35;;;28.20;81.40;;;;;;4987795;28;20251;-88
2022/06/24 08:21:42;;;;;;;5.18;2.85;;;28.30;81.20;;;;;;4984025;28;20191;-83
2022/06/24 08:24:09;;;;;;;6.07;2.60;;;28.40;81.80;;;;;;4993331;28;20614;-87
2022/06/24 08:26:34;;;;;;;4.90;2.78;;;28.60;81.20;;;;;;4981138;28;20243;-86
2022/06/24 08:29:00;;;;;;;4.60;2.88;;;28.60;81.60;;;;;;4973723;28;20218;-85
2022/06/24 08:31:28;;;;;;;3.08;2.35;;;28.60;80.40;;;;;;4974800;28;20250;-89
2022/06/24 08:33:54;;;;;;;4.78;2.72;;;28.70;81.70;;;;;;4973484;28;20176;-88
2022/06/24 08:36:24;;;;;;;6.40;2.80;;;28.80;80.60;;;;;;4993998;28;20182;-87
2022/06/24 08:38:50;;;;;;;4.53;2.80;;;29.00;82.40;;;;;;4997095;28;20930;-86
2022/06/24 08:41:24;;;;;;;5.07;2.60;;;29.00;81.20;;;;;;5002919;28;20179;-86
2022/06/24 08:43:51;;;;;;;8.95;6.65;;;29.10;80.80;;;;;;5009890;28;20172;-87
2022/06/24 08:46:18;;;;;;;5.40;3.08;;;29.10;80.50;;;;;;4992654;28;20207;-86
2022/06/24 08:48:44;;;;;;;3.60;2.30;;;29.20;80.60;;;;;;4997941;28;20179;-86
2022/06/24 08:51:13;;;;;;;3.58;2.70;;;29.30;81.30;;;;;;4996775;28;20179;-88
2022/06/24 08:53:39;;;;;;;4.15;2.90;;;29.30;81.20;;;;;;4996634;28;20255;-86
2022/06/24 08:56:06;;;;;;;5.32;3.17;;;29.20;79.80;;;;;;4996222;28;20224;-86
2022/06/24 08:58:32;;;;;;;5.57;2.70;;;29.10;79.50;;;;;;4996718;28;20219;-87
2022/06/24 09:00:58;;;;;;;6.10;2.60;;;29.10;81.40;;;;;;4997289;28;20619;-85
2022/06/24 09:03:24;;;;;;;5.55;2.80;;;29.10;81.40;;;;;;4995155;28;20188;-85
2022/06/24 09:05:49;;;;;;;4.57;2.95;;;29.20;81.40;;;;;;4995404;28;20216;-84
2022/06/24 09:08:17;;;;;;;5.72;2.97;;;29.30;81.10;;;;;;4995776;28;20226;-83
2022/06/24 09:11:06;;;;;;;7.28;3.13;;;29.30;80.40;;;;;;4994537;28;20187;-87
2022/06/24 09:13:41;;;;;;;6.13;3.22;;;29.40;82.00;;;;;;4990733;28;20235;-84
2022/06/24 09:16:09;;;;;;;7.32;2.88;;;29.30;80.50;;;;;;4976313;28;20180;-89
2022/06/24 09:18:37;;;;;;;7.85;3.33;;;29.20;80.70;;;;;;4976344;28;20296;-84
2022/06/24 09:21:03;;;;;;;3.38;2.60;;;29.20;81.00;;;;;;4993751;28;20196;-87
2022/06/24 09:23:29;;;;;;;6.63;3.00;;;29.20;82.10;;;;;;4976911;28;20211;-87
2022/06/24 09:25:58;;;;;;;5.50;3.40;;;29.20;81.60;;;;;;4975157;28;20686;-85
2022/06/24 09:28:27;;;;;;;4.10;2.58;;;29.20;81.70;;;;;;4977064;28;20289;-83
2022/06/24 09:31:01;;;;;;;3.80;2.55;;;29.20;82.40;;;;;;4991079;28;20184;-85
2022/06/24 09:33:26;;;;;;;4.93;3.20;;;29.40;81.70;;;;;;4996313;28;20571;-83
2022/06/24 09:36:00;;;;;;;5.80;3.22;;;29.60;82.10;;;;;;4993557;28;20187;-84
2022/06/24 09:38:26;;;;;;;3.83;3.03;;;29.70;81.30;;;;;;4994327;28;20531;-83
2022/06/24 09:41:00;;;;;;;4.07;3.00;;;29.80;80.90;;;;;;4994667;28;20182;-84
2022/06/24 09:43:32;;;;;;;3.40;2.92;;;29.90;81.10;;;;;;4987423;28;20619;-84
2022/06/24 09:45:59;;;;;;;3.15;2.83;;;30.10;81.20;;;;;;4979701;28;20248;-85
2022/06/24 09:48:30;;;;;;;5.35;3.60;;;30.10;81.50;;;;;;4975238;28;20646;-83
2022/06/24 09:51:07;;;;;;;8.18;3.30;;;30.20;80.80;;;;;;4975273;28;20207;-84
2022/06/24 09:53:40;;;;;;;3.90;3.15;;;30.00;80.70;;;;;;4974869;28;20184;-84
2022/06/24 09:56:07;;;;;;;3.95;3.17;;;29.90;79.70;;;;;;4975885;28;20242;-85
2022/06/24 09:58:34;;;;;;;4.25;3.00;;;29.90;79.80;;;;;;4991425;28;20188;-85
2022/06/24 10:01:03;;;;;;;5.88;3.40;;;29.80;80.40;;;;;;4975130;28;20186;-86
2022/06/24 10:03:29;;;;;;;3.70;3.28;;;29.80;81.90;;;;;;4976334;28;20481;-85
2022/06/24 10:06:01;;;;;;;4.80;3.00;;;29.60;80.50;;;;;;4988484;28;20216;-84
2022/06/24 10:08:30;;;;;;;6.22;3.15;;;29.60;80.90;;;;;;4979554;28;20188;-85
2022/06/24 10:10:59;;;;;;;3.70;3.22;;;29.40;81.50;;;;;;4975153;28;20176;-85
2022/06/24 10:13:25;;;;;;;4.13;3.25;;;29.10;82.10;;;;;;4975223;28;20176;-85
2022/06/24 10:15:53;;;;;;;5.75;3.28;;;28.80;82.80;;;;;;4976076;28;20599;-84
2022/06/24 10:18:23;;;;;;;5.95;3.30;;;28.60;83.30;;;;;;4975122;28;20200;-85
2022/06/24 10:20:50;;;;;;;7.32;3.85;;;28.30;83.90;;;;;;4979044;28;20190;-85
2022/06/24 10:23:56;;;;;;;5.55;3.47;;;28.10;86.80;;;;;;4995470;28;20164;-85
2022/06/24 10:26:32;;;;;;;3.40;3.10;;;27.90;89.70;;;;;;4974129;28;20226;-86
2022/06/24 10:29:04;;;;;;;7.50;4.20;;;27.50;90.00;;;;;;4975109;28;20180;-85
2022/06/24 10:31:57;;;;;;;12.00;5.32;;;27.10;90.90;;;;;;4988906;28;20208;-89
2022/06/24 10:34:25;;;;;;;12.32;5.55;;;26.40;94.20;;;;;;4994644;28;20211;-87
2022/06/24 10:37:13;;;;;;;16.75;7.15;;;25.80;96.20;;;;;;4993441;28;20183;-89
2022/06/24 10:39:59;;;;;;;16.60;5.25;;;25.20;97.10;;;;;;4993689;28;20184;-87
2022/06/24 10:42:26;;;;;;;5.43;3.63;;;24.40;96.80;;;;;;4998429;28;20276;-85
2022/06/24 10:45:03;;;;;;;6.47;3.83;;;24.10;98.80;;;;;;4991460;28;20630;-83
2022/06/24 10:47:35;;;;;;;5.78;3.55;;;23.60;99.70;;;;;;4993685;28;20179;-84
2022/06/24 10:50:02;;;;;;;4.55;4.07;;;23.40;99.90;;;;;;4986517;28;20234;-83
2022/06/24 10:52:38;;;;;;;5.25;4.18;;;23.20;99.90;;;;;;5009396;28;20571;-84
2022/06/24 10:58:03;;;;;;;5.50;4.10;;;23.00;99.90;;;;;;5013887;28;20673;-84
2022/06/24 11:00:42;;;;;;;6.07;4.05;;;23.00;99.90;;;;;;4973329;28;20256;-83
2022/06/24 11:03:07;;;;;;;4.85;4.18;;;22.90;99.90;;;;;;4985133;28;20168;-83
2022/06/24 11:05:35;;;;;;;6.15;4.47;;;22.90;99.90;;;;;;4973684;28;20558;-83
2022/06/24 11:08:02;;;;;;;5.35;4.05;;;23.00;99.90;;;;;;4992999;28;20238;-84
2022/06/24 11:10:30;;;;;;;3.45;2.80;;;23.10;99.90;;;;;;4993790;28;20184;-85
2022/06/24 11:12:59;;;;;;;7.38;2.85;;;23.40;99.90;;;;;;4993691;28;20194;-87
2022/06/24 11:15:35;;;;;;;4.10;2.10;;;23.90;99.90;;;;;;4992612;28;20186;-86
2022/06/24 11:18:09;;;;;;;7.30;2.20;;;24.20;99.90;;;;;;4994517;28;20274;-87
2022/06/24 11:20:40;;;;;;;4.95;1.80;;;24.50;99.90;;;;;;5002444;28;20174;-86
2022/06/24 11:23:12;;;;;;;4.25;1.63;;;24.60;99.90;;;;;;4987815;28;20192;-87
2022/06/24 11:25:45;;;;;;;3.28;1.90;;;24.50;99.90;;;;;;4974170;28;20208;-86
2022/06/24 11:28:34;;;;;;;2.97;2.00;;;24.40;99.90;;;;;;4992117;28;20183;-86
2022/06/24 11:31:27;;;;;;;3.28;2.08;;;24.60;99.90;;;;;;4994085;28;20184;-85
2022/06/24 11:34:05;;;;;;;5.80;1.75;;;24.70;99.90;;;;;;4980626;28;20689;-85
2022/06/24 11:36:35;;;;;;;3.40;1.80;;;24.70;99.90;;;;;;4975244;28;20245;-86
2022/06/24 11:39:03;;;;;;;3.22;1.80;;;24.70;99.90;;;;;;4975248;28;20192;-86
2022/06/24 11:41:36;;;;;;;5.22;2.00;;;24.70;99.90;;;;;;4989448;28;20226;-86
2022/06/24 11:44:02;;;;;;;3.20;2.10;;;24.90;99.90;;;;;;4994099;28;20183;-86
2022/06/24 11:46:28;;;;;;;5.38;1.98;;;25.00;99.90;;;;;;4994735;28;20223;-86
2022/06/24 11:49:13;;;;;;;3.33;2.08;;;25.10;99.90;;;;;;4994024;28;20172;-87
2022/06/24 11:51:41;;;;;;;5.82;1.77;;;25.20;99.90;;;;;;4993983;28;20180;-86
2022/06/24 11:54:08;;;;;;;6.57;2.00;;;25.10;99.90;;;;;;4995108;28;20161;-88
2022/06/24 11:56:38;;;;;;;4.30;1.70;;;25.00;99.90;;;;;;4994441;28;20222;-86
2022/06/24 11:59:06;;;;;;;5.03;2.20;;;24.80;99.90;;;;;;4994486;28;20262;-86
2022/06/24 12:01:33;;;;;;;3.80;1.88;;;24.60;99.90;;;;;;4994180;28;20188;-87
2022/06/24 12:04:07;;;;;;;4.60;1.90;;;24.40;99.90;;;;;;4993368;28;20274;-84
2022/06/24 12:06:33;;;;;;;5.57;1.92;;;24.30;99.90;;;;;;4993033;28;20543;-86
2022/06/24 12:08:59;;;;;;;3.83;1.88;;;24.10;99.90;;;;;;4993441;28;20266;-87
2022/06/24 12:11:26;;;;;;;5.65;2.00;;;24.10;99.90;;;;;;4997215;28;20254;-87
2022/06/24 12:14:02;;;;;;;3.08;1.80;;;24.00;99.90;;;;;;4997268;28;20196;-84
2022/06/24 12:16:48;;;;;;;7.95;2.00;;;24.00;99.90;;;;;;4996719;28;20210;-84
2022/06/24 12:19:14;;;;;;;6.85;2.08;;;23.90;99.90;;;;;;4997949;28;20176;-84
2022/06/24 12:21:40;;;;;;;5.45;2.15;;;23.80;99.90;;;;;;4997432;28;20187;-84
2022/06/24 12:24:26;;;;;;;6.22;2.50;;;23.70;99.90;;;;;;4996580;28;20229;-84
2022/06/24 12:26:54;;;;;;;5.13;2.60;;;23.60;99.90;;;;;;4997754;28;20283;-85
2022/06/24 12:29:35;;;;;;;5.43;2.60;;;23.60;99.90;;;;;;4998001;28;20607;-85
2022/06/24 12:32:03;;;;;;;5.35;2.60;;;23.60;99.90;;;;;;4996283;28;20249;-85
2022/06/24 12:34:34;;;;;;;4.15;2.35;;;23.60;99.90;;;;;;4996451;28;20207;-86
2022/06/24 12:37:04;;;;;;;7.22;2.35;;;23.60;99.90;;;;;;4996875;28;20623;-88
2022/06/24 12:39:37;;;;;;;6.13;2.22;;;23.60;99.90;;;;;;4996547;28;20211;-87
2022/06/24 12:42:04;;;;;;;5.47;2.90;;;23.60;99.90;;;;;;4997758;28;20345;-88
2022/06/24 12:44:45;;;;;;;4.22;2.47;;;23.70;99.90;;;;;;4997625;28;20187;-87
2022/06/24 12:52:44;;;;;;;3.88;2.38;;;23.90;99.90;;;;;;4997201;28;20239;-87
2022/06/24 12:55:15;;;;;;;4.63;2.60;;;24.00;99.90;;;;;;4995985;28;20173;-85
2022/06/24 12:57:42;;;;;;;4.97;2.00;;;24.00;99.90;;;;;;4995867;28;20563;-85
2022/06/24 13:00:10;;;;;;;3.65;2.00;;;24.00;99.90;;;;;;4996087;28;20226;-86
2022/06/24 13:02:40;;;;;;;4.38;2.35;;;23.90;99.90;;;;;;4995421;28;20200;-85
2022/06/24 13:05:06;;;;;;;4.75;2.35;;;23.80;99.90;;;;;;4996701;28;20169;-84
2022/06/24 13:07:32;;;;;;;4.70;1.80;;;23.80;99.90;;;;;;4996989;28;20449;-84
2022/06/24 13:09:58;;;;;;;2.17;1.73;;;23.80;99.90;;;;;;5011937;28;20262;-84